sensor_id;sensor_type;location;lat;lon;timestamp;P1;durP1;ratioP1;P2;durP2;ratioP2
63050;SDS011;49136;47.416;19.402;2023-01-09T00:01:46;16.20;;;5.65;;
63050;SDS011;49136;47.416;19.402;2023-01-09T00:04:14;19.85;;;7.28;;
63050;SDS011;49136;47.416;19.402;2023-01-09T00:06:40;17.85;;;6.25;;
63050;SDS011;49136;47.416;19.402;2023-01-09T00:09:07;17.13;;;6.43;;
63050;SDS011;49136;47.416;19.402;2023-01-09T00:11:34;21.20;;;6.95;;
63050;SDS011;49136;47.416;19.402;2023-01-09T00:14:00;14.80;;;6.60;;
63050;SDS011;49136;47.416;19.402;2023-01-09T00:16:25;21.65;;;6.63;;
63050;SDS011;49136;47.416;19.402;2023-01-09T00:18:50;15.10;;;6.47;;
63050;SDS011;49136;47.416;19.402;2023-01-09T00:24:38;18.60;;;7.40;;
63050;SDS011;49136;47.416;19.402;2023-01-09T00:27:04;25.40;;;7.35;;
63050;SDS011;49136;47.416;19.402;2023-01-09T00:29:29;14.00;;;5.78;;
63050;SDS011;49136;47.416;19.402;2023-01-09T00:31:59;15.10;;;6.18;;
63050;SDS011;49136;47.416;19.402;2023-01-09T00:34:25;17.60;;;6.65;;
63050;SDS011;49136;47.416;19.402;2023-01-09T00:36:51;17.33;;;6.75;;
63050;SDS011;49136;47.416;19.402;2023-01-09T00:39:19;15.38;;;5.78;;
63050;SDS011;49136;47.416;19.402;2023-01-09T00:42:02;17.17;;;6.25;;
63050;SDS011;49136;47.416;19.402;2023-01-09T00:45:13;13.07;;;5.72;;
63050;SDS011;49136;47.416;19.402;2023-01-09T00:47:24;16.92;;;6.22;;
63050;SDS011;49136;47.416;19.402;2023-01-09T00:49:53;12.85;;;6.20;;
63050;SDS011;49136;47.416;19.402;2023-01-09T00:52:31;12.82;;;6.22;;
63050;SDS011;49136;47.416;19.402;2023-01-09T00:55:02;13.38;;;5.50;;
63050;SDS011;49136;47.416;19.402;2023-01-09T00:57:28;21.52;;;7.15;;
63050;SDS011;49136;47.416;19.402;2023-01-09T00:59:54;15.70;;;6.80;;
63050;SDS011;49136;47.416;19.402;2023-01-09T01:05:11;17.00;;;6.70;;
63050;SDS011;49136;47.416;19.402;2023-01-09T01:07:55;14.85;;;5.93;;
63050;SDS011;49136;47.416;19.402;2023-01-09T01:10:22;19.75;;;8.00;;
63050;SDS011;49136;47.416;19.402;2023-01-09T01:13:01;16.55;;;6.03;;
63050;SDS011;49136;47.416;19.402;2023-01-09T01:15:26;17.27;;;6.50;;
63050;SDS011;49136;47.416;19.402;2023-01-09T01:17:53;14.10;;;6.35;;
63050;SDS011;49136;47.416;19.402;2023-01-09T01:20:19;12.15;;;5.75;;
63050;SDS011;49136;47.416;19.402;2023-01-09T01:22:54;12.48;;;5.28;;
63050;SDS011;49136;47.416;19.402;2023-01-09T01:25:23;9.52;;;5.82;;
63050;SDS011;49136;47.416;19.402;2023-01-09T01:27:48;17.02;;;6.03;;
63050;SDS011;49136;47.416;19.402;2023-01-09T01:30:14;20.17;;;5.95;;
63050;SDS011;49136;47.416;19.402;2023-01-09T01:32:41;25.30;;;7.32;;
63050;SDS011;49136;47.416;19.402;2023-01-09T01:35:08;17.08;;;6.43;;
63050;SDS011;49136;47.416;19.402;2023-01-09T01:37:34;14.85;;;6.55;;
63050;SDS011;49136;47.416;19.402;2023-01-09T01:40:00;22.60;;;8.70;;
63050;SDS011;49136;47.416;19.402;2023-01-09T01:42:32;18.88;;;7.85;;
63050;SDS011;49136;47.416;19.402;2023-01-09T01:50:08;17.27;;;7.40;;
63050;SDS011;49136;47.416;19.402;2023-01-09T01:52:44;15.70;;;7.43;;
63050;SDS011;49136;47.416;19.402;2023-01-09T01:55:18;15.20;;;7.75;;
63050;SDS011;49136;47.416;19.402;2023-01-09T01:57:45;21.17;;;7.60;;
63050;SDS011;49136;47.416;19.402;2023-01-09T02:00:14;15.65;;;7.05;;
63050;SDS011;49136;47.416;19.402;2023-01-09T02:02:43;18.13;;;7.15;;
63050;SDS011;49136;47.416;19.402;2023-01-09T02:05:09;23.90;;;7.72;;
63050;SDS011;49136;47.416;19.402;2023-01-09T02:07:35;21.25;;;9.00;;
63050;SDS011;49136;47.416;19.402;2023-01-09T02:10:01;18.75;;;7.45;;
63050;SDS011;49136;47.416;19.402;2023-01-09T02:12:36;21.15;;;8.00;;
63050;SDS011;49136;47.416;19.402;2023-01-09T02:15:07;20.15;;;8.95;;
63050;SDS011;49136;47.416;19.402;2023-01-09T02:23:02;16.52;;;6.70;;
63050;SDS011;49136;47.416;19.402;2023-01-09T02:26:02;25.55;;;8.85;;
63050;SDS011;49136;47.416;19.402;2023-01-09T02:31:31;21.80;;;8.50;;
63050;SDS011;49136;47.416;19.402;2023-01-09T02:36:53;23.40;;;8.23;;
63050;SDS011;49136;47.416;19.402;2023-01-09T02:42:55;28.75;;;8.07;;
63050;SDS011;49136;47.416;19.402;2023-01-09T02:45:25;15.25;;;8.55;;
63050;SDS011;49136;47.416;19.402;2023-01-09T02:47:51;20.27;;;7.72;;
63050;SDS011;49136;47.416;19.402;2023-01-09T03:00:25;21.73;;;8.68;;
63050;SDS011;49136;47.416;19.402;2023-01-09T03:06:17;15.00;;;5.97;;
63050;SDS011;49136;47.416;19.402;2023-01-09T03:08:38;21.23;;;8.50;;
63050;SDS011;49136;47.416;19.402;2023-01-09T03:11:07;19.30;;;7.05;;
63050;SDS011;49136;47.416;19.402;2023-01-09T03:16:31;14.40;;;6.00;;
63050;SDS011;49136;47.416;19.402;2023-01-09T03:19:00;20.42;;;7.43;;
63050;SDS011;49136;47.416;19.402;2023-01-09T03:21:28;27.33;;;8.95;;
63050;SDS011;49136;47.416;19.402;2023-01-09T03:23:56;16.08;;;6.50;;
63050;SDS011;49136;47.416;19.402;2023-01-09T03:26:23;26.67;;;8.82;;
63050;SDS011;49136;47.416;19.402;2023-01-09T03:28:49;21.38;;;7.78;;
63050;SDS011;49136;47.416;19.402;2023-01-09T03:31:15;18.77;;;8.30;;
63050;SDS011;49136;47.416;19.402;2023-01-09T03:33:41;19.17;;;8.73;;
63050;SDS011;49136;47.416;19.402;2023-01-09T03:36:08;21.42;;;7.65;;
63050;SDS011;49136;47.416;19.402;2023-01-09T03:38:34;17.35;;;7.53;;
63050;SDS011;49136;47.416;19.402;2023-01-09T03:41:00;11.48;;;6.55;;
63050;SDS011;49136;47.416;19.402;2023-01-09T03:43:36;21.00;;;7.80;;
63050;SDS011;49136;47.416;19.402;2023-01-09T03:46:02;23.80;;;9.38;;
63050;SDS011;49136;47.416;19.402;2023-01-09T03:48:28;23.83;;;8.20;;
63050;SDS011;49136;47.416;19.402;2023-01-09T03:50:54;24.42;;;9.05;;
63050;SDS011;49136;47.416;19.402;2023-01-09T03:55:51;26.05;;;8.90;;
63050;SDS011;49136;47.416;19.402;2023-01-09T03:58:18;24.52;;;9.13;;
63050;SDS011;49136;47.416;19.402;2023-01-09T04:00:45;21.20;;;8.77;;
63050;SDS011;49136;47.416;19.402;2023-01-09T04:03:28;23.15;;;9.55;;
63050;SDS011;49136;47.416;19.402;2023-01-09T04:05:54;31.60;;;9.43;;
63050;SDS011;49136;47.416;19.402;2023-01-09T04:08:19;21.30;;;9.15;;
63050;SDS011;49136;47.416;19.402;2023-01-09T04:10:46;19.25;;;7.95;;
63050;SDS011;49136;47.416;19.402;2023-01-09T04:16:27;20.13;;;9.43;;
63050;SDS011;49136;47.416;19.402;2023-01-09T04:18:53;12.98;;;6.65;;
63050;SDS011;49136;47.416;19.402;2023-01-09T04:21:18;24.58;;;10.07;;
63050;SDS011;49136;47.416;19.402;2023-01-09T04:23:45;17.15;;;6.63;;
63050;SDS011;49136;47.416;19.402;2023-01-09T04:26:10;15.90;;;7.82;;
63050;SDS011;49136;47.416;19.402;2023-01-09T04:28:36;26.00;;;9.40;;
63050;SDS011;49136;47.416;19.402;2023-01-09T04:31:01;19.45;;;8.48;;
63050;SDS011;49136;47.416;19.402;2023-01-09T04:33:27;27.23;;;9.02;;
63050;SDS011;49136;47.416;19.402;2023-01-09T04:35:53;20.67;;;8.07;;
63050;SDS011;49136;47.416;19.402;2023-01-09T04:38:18;26.88;;;9.82;;
63050;SDS011;49136;47.416;19.402;2023-01-09T04:40:47;18.02;;;8.80;;
63050;SDS011;49136;47.416;19.402;2023-01-09T04:46:01;22.35;;;8.30;;
63050;SDS011;49136;47.416;19.402;2023-01-09T04:48:26;20.58;;;8.75;;
63050;SDS011;49136;47.416;19.402;2023-01-09T04:50:52;27.05;;;9.07;;
63050;SDS011;49136;47.416;19.402;2023-01-09T04:53:19;20.80;;;8.48;;
63050;SDS011;49136;47.416;19.402;2023-01-09T04:55:45;26.90;;;10.05;;
63050;SDS011;49136;47.416;19.402;2023-01-09T04:58:10;16.30;;;8.77;;
63050;SDS011;49136;47.416;19.402;2023-01-09T05:00:36;20.35;;;7.63;;
63050;SDS011;49136;47.416;19.402;2023-01-09T05:03:01;28.85;;;8.35;;
63050;SDS011;49136;47.416;19.402;2023-01-09T05:05:28;22.83;;;8.73;;
63050;SDS011;49136;47.416;19.402;2023-01-09T05:07:54;29.90;;;9.98;;
63050;SDS011;49136;47.416;19.402;2023-01-09T05:10:19;20.50;;;8.90;;
63050;SDS011;49136;47.416;19.402;2023-01-09T05:12:45;18.73;;;8.13;;
63050;SDS011;49136;47.416;19.402;2023-01-09T05:18:13;21.17;;;8.30;;
63050;SDS011;49136;47.416;19.402;2023-01-09T05:20:38;31.90;;;7.85;;
63050;SDS011;49136;47.416;19.402;2023-01-09T05:23:04;36.13;;;10.70;;
63050;SDS011;49136;47.416;19.402;2023-01-09T05:25:39;19.80;;;8.85;;
63050;SDS011;49136;47.416;19.402;2023-01-09T05:28:07;23.35;;;9.90;;
63050;SDS011;49136;47.416;19.402;2023-01-09T05:30:33;23.90;;;9.43;;
63050;SDS011;49136;47.416;19.402;2023-01-09T05:32:58;17.48;;;8.80;;
63050;SDS011;49136;47.416;19.402;2023-01-09T05:38:40;19.23;;;8.70;;
63050;SDS011;49136;47.416;19.402;2023-01-09T05:41:05;16.60;;;7.88;;
63050;SDS011;49136;47.416;19.402;2023-01-09T05:43:31;18.65;;;7.78;;
63050;SDS011;49136;47.416;19.402;2023-01-09T05:48:42;20.23;;;9.20;;
63050;SDS011;49136;47.416;19.402;2023-01-09T05:51:08;24.58;;;9.30;;
63050;SDS011;49136;47.416;19.402;2023-01-09T05:53:39;26.90;;;9.68;;
63050;SDS011;49136;47.416;19.402;2023-01-09T05:56:05;27.20;;;9.43;;
63050;SDS011;49136;47.416;19.402;2023-01-09T05:58:30;23.70;;;8.65;;
63050;SDS011;49136;47.416;19.402;2023-01-09T06:00:56;16.45;;;8.23;;
63050;SDS011;49136;47.416;19.402;2023-01-09T06:03:25;25.58;;;8.68;;
63050;SDS011;49136;47.416;19.402;2023-01-09T06:05:51;24.58;;;8.73;;
63050;SDS011;49136;47.416;19.402;2023-01-09T06:08:16;20.27;;;8.63;;
63050;SDS011;49136;47.416;19.402;2023-01-09T06:10:42;25.58;;;9.45;;
63050;SDS011;49136;47.416;19.402;2023-01-09T06:13:07;20.77;;;8.43;;
63050;SDS011;49136;47.416;19.402;2023-01-09T06:18:02;21.85;;;8.70;;
63050;SDS011;49136;47.416;19.402;2023-01-09T06:20:29;22.90;;;10.50;;
63050;SDS011;49136;47.416;19.402;2023-01-09T06:25:33;23.75;;;8.80;;
63050;SDS011;49136;47.416;19.402;2023-01-09T06:27:59;17.63;;;6.85;;
63050;SDS011;49136;47.416;19.402;2023-01-09T06:30:24;27.15;;;8.50;;
63050;SDS011;49136;47.416;19.402;2023-01-09T06:32:50;23.73;;;8.65;;
63050;SDS011;49136;47.416;19.402;2023-01-09T06:37:47;24.05;;;9.13;;
63050;SDS011;49136;47.416;19.402;2023-01-09T06:40:13;22.92;;;7.00;;
63050;SDS011;49136;47.416;19.402;2023-01-09T06:42:43;21.38;;;9.40;;
63050;SDS011;49136;47.416;19.402;2023-01-09T06:45:12;17.40;;;7.32;;
63050;SDS011;49136;47.416;19.402;2023-01-09T06:50:30;20.80;;;8.93;;
63050;SDS011;49136;47.416;19.402;2023-01-09T06:52:56;18.67;;;7.13;;
63050;SDS011;49136;47.416;19.402;2023-01-09T06:55:36;16.58;;;8.23;;
63050;SDS011;49136;47.416;19.402;2023-01-09T06:58:01;19.27;;;8.13;;
63050;SDS011;49136;47.416;19.402;2023-01-09T07:00:27;24.17;;;8.07;;
63050;SDS011;49136;47.416;19.402;2023-01-09T07:02:53;17.58;;;8.27;;
63050;SDS011;49136;47.416;19.402;2023-01-09T07:08:15;17.45;;;7.60;;
63050;SDS011;49136;47.416;19.402;2023-01-09T07:10:41;23.25;;;9.73;;
63050;SDS011;49136;47.416;19.402;2023-01-09T07:13:07;25.90;;;9.52;;
63050;SDS011;49136;47.416;19.402;2023-01-09T07:18:08;26.25;;;10.23;;
63050;SDS011;49136;47.416;19.402;2023-01-09T07:20:34;25.30;;;9.23;;
63050;SDS011;49136;47.416;19.402;2023-01-09T07:22:59;20.20;;;8.85;;
63050;SDS011;49136;47.416;19.402;2023-01-09T07:28:03;23.20;;;9.10;;
63050;SDS011;49136;47.416;19.402;2023-01-09T07:30:29;23.45;;;9.68;;
63050;SDS011;49136;47.416;19.402;2023-01-09T07:32:54;24.15;;;10.20;;
63050;SDS011;49136;47.416;19.402;2023-01-09T07:35:20;16.23;;;8.00;;
63050;SDS011;49136;47.416;19.402;2023-01-09T07:40:15;23.65;;;9.43;;
63050;SDS011;49136;47.416;19.402;2023-01-09T07:42:40;26.52;;;10.73;;
63050;SDS011;49136;47.416;19.402;2023-01-09T07:45:06;22.95;;;9.75;;
63050;SDS011;49136;47.416;19.402;2023-01-09T07:47:34;27.52;;;10.50;;
63050;SDS011;49136;47.416;19.402;2023-01-09T07:50:00;20.38;;;9.07;;
63050;SDS011;49136;47.416;19.402;2023-01-09T07:52:25;25.67;;;9.02;;
63050;SDS011;49136;47.416;19.402;2023-01-09T07:55:04;27.00;;;8.80;;
63050;SDS011;49136;47.416;19.402;2023-01-09T07:57:30;21.13;;;8.57;;
63050;SDS011;49136;47.416;19.402;2023-01-09T07:59:55;19.20;;;8.05;;
63050;SDS011;49136;47.416;19.402;2023-01-09T08:02:21;38.00;;;10.85;;
63050;SDS011;49136;47.416;19.402;2023-01-09T08:04:46;32.90;;;9.38;;
63050;SDS011;49136;47.416;19.402;2023-01-09T08:07:23;28.60;;;10.02;;
63050;SDS011;49136;47.416;19.402;2023-01-09T08:09:51;32.17;;;10.98;;
63050;SDS011;49136;47.416;19.402;2023-01-09T08:12:17;25.02;;;10.15;;
63050;SDS011;49136;47.416;19.402;2023-01-09T08:14:45;20.45;;;8.65;;
63050;SDS011;49136;47.416;19.402;2023-01-09T08:19:40;31.05;;;10.77;;
63050;SDS011;49136;47.416;19.402;2023-01-09T08:22:07;24.42;;;10.15;;
63050;SDS011;49136;47.416;19.402;2023-01-09T08:24:33;17.45;;;9.38;;
63050;SDS011;49136;47.416;19.402;2023-01-09T08:27:00;20.98;;;8.57;;
63050;SDS011;49136;47.416;19.402;2023-01-09T08:29:26;28.77;;;11.10;;
63050;SDS011;49136;47.416;19.402;2023-01-09T08:31:51;23.33;;;9.02;;
63050;SDS011;49136;47.416;19.402;2023-01-09T08:34:17;24.27;;;8.77;;
63050;SDS011;49136;47.416;19.402;2023-01-09T08:36:43;16.58;;;9.77;;
63050;SDS011;49136;47.416;19.402;2023-01-09T08:39:08;26.05;;;9.82;;
63050;SDS011;49136;47.416;19.402;2023-01-09T08:41:34;26.92;;;8.30;;
63050;SDS011;49136;47.416;19.402;2023-01-09T08:44:18;21.05;;;8.55;;
63050;SDS011;49136;47.416;19.402;2023-01-09T08:47:17;18.63;;;9.07;;
63050;SDS011;49136;47.416;19.402;2023-01-09T08:49:45;19.42;;;8.00;;
63050;SDS011;49136;47.416;19.402;2023-01-09T08:54:56;18.45;;;7.88;;
63050;SDS011;49136;47.416;19.402;2023-01-09T08:57:22;23.33;;;8.80;;
63050;SDS011;49136;47.416;19.402;2023-01-09T08:59:48;22.05;;;8.23;;
63050;SDS011;49136;47.416;19.402;2023-01-09T09:05:11;23.20;;;9.73;;
63050;SDS011;49136;47.416;19.402;2023-01-09T09:07:36;21.67;;;8.77;;
63050;SDS011;49136;47.416;19.402;2023-01-09T09:10:02;13.77;;;6.82;;
63050;SDS011;49136;47.416;19.402;2023-01-09T09:12:30;25.10;;;7.93;;
63050;SDS011;49136;47.416;19.402;2023-01-09T09:14:55;21.02;;;9.20;;
63050;SDS011;49136;47.416;19.402;2023-01-09T09:17:39;25.20;;;9.10;;
63050;SDS011;49136;47.416;19.402;2023-01-09T09:20:05;20.98;;;8.57;;
63050;SDS011;49136;47.416;19.402;2023-01-09T09:22:32;23.02;;;9.85;;
63050;SDS011;49136;47.416;19.402;2023-01-09T09:24:58;18.02;;;6.82;;
63050;SDS011;49136;47.416;19.402;2023-01-09T09:27:23;22.77;;;10.20;;
63050;SDS011;49136;47.416;19.402;2023-01-09T09:29:49;21.45;;;9.13;;
63050;SDS011;49136;47.416;19.402;2023-01-09T09:32:14;21.13;;;7.55;;
63050;SDS011;49136;47.416;19.402;2023-01-09T09:34:41;25.55;;;10.57;;
63050;SDS011;49136;47.416;19.402;2023-01-09T09:37:07;25.05;;;9.40;;
63050;SDS011;49136;47.416;19.402;2023-01-09T09:39:33;25.17;;;9.77;;
63050;SDS011;49136;47.416;19.402;2023-01-09T09:51:25;22.38;;;8.70;;
63050;SDS011;49136;47.416;19.402;2023-01-09T09:53:58;19.77;;;8.18;;
63050;SDS011;49136;47.416;19.402;2023-01-09T09:56:39;29.23;;;10.48;;
63050;SDS011;49136;47.416;19.402;2023-01-09T09:59:14;19.17;;;8.30;;
63050;SDS011;49136;47.416;19.402;2023-01-09T10:06:57;18.83;;;9.63;;
63050;SDS011;49136;47.416;19.402;2023-01-09T10:21:07;22.38;;;8.70;;
63050;SDS011;49136;47.416;19.402;2023-01-09T10:26:25;22.40;;;9.40;;
63050;SDS011;49136;47.416;19.402;2023-01-09T10:37:43;28.27;;;11.02;;
63050;SDS011;49136;47.416;19.402;2023-01-09T10:40:45;31.65;;;10.98;;
63050;SDS011;49136;47.416;19.402;2023-01-09T10:46:30;24.88;;;8.98;;
63050;SDS011;49136;47.416;19.402;2023-01-09T10:49:10;18.88;;;8.60;;
63050;SDS011;49136;47.416;19.402;2023-01-09T10:51:43;30.50;;;10.27;;
63050;SDS011;49136;47.416;19.402;2023-01-09T10:54:13;23.08;;;8.85;;
63050;SDS011;49136;47.416;19.402;2023-01-09T10:57:26;24.00;;;10.43;;
63050;SDS011;49136;47.416;19.402;2023-01-09T11:00:04;16.83;;;7.88;;
63050;SDS011;49136;47.416;19.402;2023-01-09T11:02:31;20.67;;;10.32;;
63050;SDS011;49136;47.416;19.402;2023-01-09T11:05:02;27.55;;;10.35;;
63050;SDS011;49136;47.416;19.402;2023-01-09T11:07:29;31.45;;;10.75;;
63050;SDS011;49136;47.416;19.402;2023-01-09T11:10:03;28.88;;;11.00;;
63050;SDS011;49136;47.416;19.402;2023-01-09T11:12:35;30.13;;;9.90;;
63050;SDS011;49136;47.416;19.402;2023-01-09T11:17:56;31.95;;;9.00;;
63050;SDS011;49136;47.416;19.402;2023-01-09T11:20:41;27.20;;;10.50;;
63050;SDS011;49136;47.416;19.402;2023-01-09T11:23:09;24.30;;;12.32;;
63050;SDS011;49136;47.416;19.402;2023-01-09T11:25:56;30.13;;;12.40;;
63050;SDS011;49136;47.416;19.402;2023-01-09T11:28:24;27.13;;;11.85;;
63050;SDS011;49136;47.416;19.402;2023-01-09T11:30:50;25.90;;;11.05;;
63050;SDS011;49136;47.416;19.402;2023-01-09T11:33:24;29.60;;;11.25;;
63050;SDS011;49136;47.416;19.402;2023-01-09T11:38:23;29.80;;;10.98;;
63050;SDS011;49136;47.416;19.402;2023-01-09T11:40:49;26.15;;;11.32;;
63050;SDS011;49136;47.416;19.402;2023-01-09T11:43:26;24.52;;;11.20;;
63050;SDS011;49136;47.416;19.402;2023-01-09T11:45:59;27.67;;;11.32;;
63050;SDS011;49136;47.416;19.402;2023-01-09T11:51:30;35.92;;;13.63;;
63050;SDS011;49136;47.416;19.402;2023-01-09T11:56:47;25.25;;;11.50;;
63050;SDS011;49136;47.416;19.402;2023-01-09T11:59:14;35.38;;;11.85;;
63050;SDS011;49136;47.416;19.402;2023-01-09T12:04:21;36.38;;;11.00;;
63050;SDS011;49136;47.416;19.402;2023-01-09T12:09:41;48.53;;;13.32;;
63050;SDS011;49136;47.416;19.402;2023-01-09T12:12:24;35.13;;;11.40;;
63050;SDS011;49136;47.416;19.402;2023-01-09T12:28:50;26.05;;;9.82;;
63050;SDS011;49136;47.416;19.402;2023-01-09T12:37:12;30.08;;;12.43;;
63050;SDS011;49136;47.416;19.402;2023-01-09T12:42:48;53.60;;;16.38;;
63050;SDS011;49136;47.416;19.402;2023-01-09T12:49:10;14.35;;;8.05;;
63050;SDS011;49136;47.416;19.402;2023-01-09T12:57:24;42.92;;;11.52;;
63050;SDS011;49136;47.416;19.402;2023-01-09T13:00:03;27.30;;;10.73;;
63050;SDS011;49136;47.416;19.402;2023-01-09T13:11:30;31.27;;;11.23;;
63050;SDS011;49136;47.416;19.402;2023-01-09T13:17:06;25.30;;;10.13;;
63050;SDS011;49136;47.416;19.402;2023-01-09T13:19:40;34.70;;;10.38;;
63050;SDS011;49136;47.416;19.402;2023-01-09T13:22:09;38.70;;;11.77;;
63050;SDS011;49136;47.416;19.402;2023-01-09T13:27:35;23.50;;;9.25;;
63050;SDS011;49136;47.416;19.402;2023-01-09T13:33:08;28.60;;;11.73;;
63050;SDS011;49136;47.416;19.402;2023-01-09T13:35:47;26.25;;;10.13;;
63050;SDS011;49136;47.416;19.402;2023-01-09T13:38:27;24.17;;;11.40;;
63050;SDS011;49136;47.416;19.402;2023-01-09T13:41:06;29.50;;;10.13;;
63050;SDS011;49136;47.416;19.402;2023-01-09T13:43:55;29.58;;;11.98;;
63050;SDS011;49136;47.416;19.402;2023-01-09T13:59:50;22.88;;;9.88;;
63050;SDS011;49136;47.416;19.402;2023-01-09T14:03:03;33.35;;;11.23;;
63050;SDS011;49136;47.416;19.402;2023-01-09T14:07:43;28.92;;;9.50;;
63050;SDS011;49136;47.416;19.402;2023-01-09T14:10:23;27.92;;;10.10;;
63050;SDS011;49136;47.416;19.402;2023-01-09T14:12:52;29.38;;;11.13;;
63050;SDS011;49136;47.416;19.402;2023-01-09T14:15:30;28.55;;;11.02;;
63050;SDS011;49136;47.416;19.402;2023-01-09T14:18:15;18.08;;;9.20;;
63050;SDS011;49136;47.416;19.402;2023-01-09T14:23:26;25.13;;;9.90;;
63050;SDS011;49136;47.416;19.402;2023-01-09T14:28:26;22.80;;;10.68;;
63050;SDS011;49136;47.416;19.402;2023-01-09T14:39:02;26.65;;;11.30;;
63050;SDS011;49136;47.416;19.402;2023-01-09T14:44:33;37.97;;;11.82;;
63050;SDS011;49136;47.416;19.402;2023-01-09T14:56:01;40.38;;;14.70;;
63050;SDS011;49136;47.416;19.402;2023-01-09T14:58:42;46.75;;;14.32;;
63050;SDS011;49136;47.416;19.402;2023-01-09T15:01:12;26.20;;;9.87;;
63050;SDS011;49136;47.416;19.402;2023-01-09T15:03:47;35.63;;;12.70;;
63050;SDS011;49136;47.416;19.402;2023-01-09T15:08:48;28.50;;;12.38;;
63050;SDS011;49136;47.416;19.402;2023-01-09T15:11:43;24.67;;;10.90;;
63050;SDS011;49136;47.416;19.402;2023-01-09T15:14:16;37.88;;;15.10;;
63050;SDS011;49136;47.416;19.402;2023-01-09T15:16:50;44.83;;;14.68;;
63050;SDS011;49136;47.416;19.402;2023-01-09T15:19:27;31.17;;;11.80;;
63050;SDS011;49136;47.416;19.402;2023-01-09T15:22:01;30.98;;;13.20;;
63050;SDS011;49136;47.416;19.402;2023-01-09T15:24:29;35.40;;;10.10;;
63050;SDS011;49136;47.416;19.402;2023-01-09T15:26:59;30.45;;;12.30;;
63050;SDS011;49136;47.416;19.402;2023-01-09T15:29:41;39.05;;;14.75;;
63050;SDS011;49136;47.416;19.402;2023-01-09T15:32:08;32.15;;;13.57;;
63050;SDS011;49136;47.416;19.402;2023-01-09T15:34:42;28.83;;;12.38;;
63050;SDS011;49136;47.416;19.402;2023-01-09T15:37:23;33.65;;;11.35;;
63050;SDS011;49136;47.416;19.402;2023-01-09T15:40:03;27.70;;;11.77;;
63050;SDS011;49136;47.416;19.402;2023-01-09T15:42:32;33.92;;;13.13;;
63050;SDS011;49136;47.416;19.402;2023-01-09T15:51:07;39.25;;;15.10;;
63050;SDS011;49136;47.416;19.402;2023-01-09T15:53:42;38.17;;;14.95;;
63050;SDS011;49136;47.416;19.402;2023-01-09T15:58:45;43.22;;;13.32;;
63050;SDS011;49136;47.416;19.402;2023-01-09T16:04:08;30.60;;;11.93;;
63050;SDS011;49136;47.416;19.402;2023-01-09T16:06:37;29.58;;;11.95;;
63050;SDS011;49136;47.416;19.402;2023-01-09T16:09:19;49.53;;;14.88;;
63050;SDS011;49136;47.416;19.402;2023-01-09T16:11:51;33.78;;;14.02;;
63050;SDS011;49136;47.416;19.402;2023-01-09T16:14:28;36.67;;;15.75;;
63050;SDS011;49136;47.416;19.402;2023-01-09T16:17:00;52.00;;;18.55;;
63050;SDS011;49136;47.416;19.402;2023-01-09T16:19:31;46.58;;;19.35;;
63050;SDS011;49136;47.416;19.402;2023-01-09T16:22:23;60.53;;;20.25;;
63050;SDS011;49136;47.416;19.402;2023-01-09T16:24:57;44.10;;;21.25;;
63050;SDS011;49136;47.416;19.402;2023-01-09T16:27:31;84.32;;;27.48;;
63050;SDS011;49136;47.416;19.402;2023-01-09T16:32:50;70.32;;;19.88;;
63050;SDS011;49136;47.416;19.402;2023-01-09T16:35:20;66.40;;;23.38;;
63050;SDS011;49136;47.416;19.402;2023-01-09T16:37:48;79.05;;;26.35;;
63050;SDS011;49136;47.416;19.402;2023-01-09T16:43:00;70.45;;;24.40;;
63050;SDS011;49136;47.416;19.402;2023-01-09T16:45:37;52.60;;;21.83;;
63050;SDS011;49136;47.416;19.402;2023-01-09T16:48:15;65.45;;;23.23;;
63050;SDS011;49136;47.416;19.402;2023-01-09T16:50:55;60.45;;;20.67;;
63050;SDS011;49136;47.416;19.402;2023-01-09T16:53:21;48.85;;;19.38;;
63050;SDS011;49136;47.416;19.402;2023-01-09T16:55:52;62.65;;;23.00;;
63050;SDS011;49136;47.416;19.402;2023-01-09T16:58:22;45.78;;;20.95;;
63050;SDS011;49136;47.416;19.402;2023-01-09T17:01:05;61.42;;;22.27;;
63050;SDS011;49136;47.416;19.402;2023-01-09T17:03:31;39.95;;;17.55;;
63050;SDS011;49136;47.416;19.402;2023-01-09T17:05:58;42.22;;;17.05;;
63050;SDS011;49136;47.416;19.402;2023-01-09T17:08:28;52.40;;;20.77;;
63050;SDS011;49136;47.416;19.402;2023-01-09T17:14:10;48.22;;;19.27;;
63050;SDS011;49136;47.416;19.402;2023-01-09T17:16:40;59.53;;;22.23;;
63050;SDS011;49136;47.416;19.402;2023-01-09T17:19:18;49.22;;;21.35;;
63050;SDS011;49136;47.416;19.402;2023-01-09T17:21:45;48.85;;;20.42;;
63050;SDS011;49136;47.416;19.402;2023-01-09T17:24:11;39.47;;;16.42;;
63050;SDS011;49136;47.416;19.402;2023-01-09T17:26:55;45.95;;;16.15;;
63050;SDS011;49136;47.416;19.402;2023-01-09T17:29:41;41.17;;;16.30;;
63050;SDS011;49136;47.416;19.402;2023-01-09T17:32:11;42.00;;;17.30;;
63050;SDS011;49136;47.416;19.402;2023-01-09T17:34:38;39.25;;;16.92;;
63050;SDS011;49136;47.416;19.402;2023-01-09T17:37:03;48.47;;;18.85;;
63050;SDS011;49136;47.416;19.402;2023-01-09T17:39:36;50.97;;;20.17;;
63050;SDS011;49136;47.416;19.402;2023-01-09T17:42:02;57.53;;;21.33;;
63050;SDS011;49136;47.416;19.402;2023-01-09T17:44:27;68.30;;;20.42;;
63050;SDS011;49136;47.416;19.402;2023-01-09T17:46:53;79.00;;;22.60;;
63050;SDS011;49136;47.416;19.402;2023-01-09T17:49:21;50.17;;;20.27;;
63050;SDS011;49136;47.416;19.402;2023-01-09T17:51:47;47.35;;;19.27;;
63050;SDS011;49136;47.416;19.402;2023-01-09T17:54:12;56.28;;;18.65;;
63050;SDS011;49136;47.416;19.402;2023-01-09T17:56:39;56.85;;;19.83;;
63050;SDS011;49136;47.416;19.402;2023-01-09T17:59:09;50.38;;;18.52;;
63050;SDS011;49136;47.416;19.402;2023-01-09T18:04:40;43.17;;;17.27;;
63050;SDS011;49136;47.416;19.402;2023-01-09T18:07:05;44.60;;;17.27;;
63050;SDS011;49136;47.416;19.402;2023-01-09T18:09:43;53.67;;;17.77;;
63050;SDS011;49136;47.416;19.402;2023-01-09T18:12:08;37.88;;;16.70;;
63050;SDS011;49136;47.416;19.402;2023-01-09T18:14:35;42.08;;;16.17;;
63050;SDS011;49136;47.416;19.402;2023-01-09T18:17:02;58.28;;;18.30;;
63050;SDS011;49136;47.416;19.402;2023-01-09T18:19:31;52.13;;;19.48;;
63050;SDS011;49136;47.416;19.402;2023-01-09T18:21:59;52.75;;;17.92;;
63050;SDS011;49136;47.416;19.402;2023-01-09T18:24:25;46.38;;;18.33;;
63050;SDS011;49136;47.416;19.402;2023-01-09T18:26:50;40.88;;;15.18;;
63050;SDS011;49136;47.416;19.402;2023-01-09T18:29:21;39.20;;;16.77;;
63050;SDS011;49136;47.416;19.402;2023-01-09T18:31:47;35.33;;;15.75;;
63050;SDS011;49136;47.416;19.402;2023-01-09T18:34:15;28.98;;;13.05;;
63050;SDS011;49136;47.416;19.402;2023-01-09T18:36:42;26.35;;;12.20;;
63050;SDS011;49136;47.416;19.402;2023-01-09T18:39:08;23.92;;;10.98;;
63050;SDS011;49136;47.416;19.402;2023-01-09T18:41:35;37.67;;;12.50;;
63050;SDS011;49136;47.416;19.402;2023-01-09T18:44:08;22.90;;;10.70;;
63050;SDS011;49136;47.416;19.402;2023-01-09T18:46:37;18.60;;;10.57;;
63050;SDS011;49136;47.416;19.402;2023-01-09T18:49:04;23.65;;;7.93;;
63050;SDS011;49136;47.416;19.402;2023-01-09T18:51:32;29.92;;;10.82;;
63050;SDS011;49136;47.416;19.402;2023-01-09T18:53:59;34.63;;;11.32;;
63050;SDS011;49136;47.416;19.402;2023-01-09T18:56:25;31.45;;;13.30;;